Station: Townsville - Fanning River (Defence)  

  Atmospheric Gas Attenuation - ITU Rec 676-11   ----------------- dB/100km -----------------
Date Time Temp RH % AH g/m3 Dew Point Wind Direction Speed kph Gust kph Barometer mB Rainfall Since 9am 24GHz 47GHz 76GHz 122GHz 134GHz 241GHz
08/05 12:40 27.2 47 12.23 14.9 9 13 1016.1 0 26.5 27.7 46.8 123.3 125.9 436.4
08/05 12:30 28.2 44 12.1 15.1 6 9 1016.3 0 26.2 27.2 45.8 120.5 122.8 425.5
08/05 12:20 25.9 49 11.86 14.6 7 9 1016.4 0 25.8 27.5 46.2 121.6 123.4 427.4
08/05 12:10 25.9 48 11.62 14.3 11 15 1016.5 0 25.3 27.2 45.3 119.2 120.4 417.0
08/05 12:00 26.9 46 11.77 14.6 9 19 1016.7 0 25.6 27.1 45.3 119.2 120.8 418.3
08/05 11:50 26.8 49 12.47 15.2 9 11 1016.8 0 27.0 28.2 48.0 126.5 129.6 449.4
08/05 11:40 26.8 47 11.96 14.8 4 7 1016.9 0 26.0 27.4 46.1 121.3 123.3 427.1
08/05 11:30 26.3 49 12.13 15 11 20 1017.1 0 26.4 27.9 47.0 123.8 126.2 437.3
08/05 11:20 27 48 12.35 15.3 15 20 1017.4 0 26.8 28.0 47.4 125.0 127.9 443.2
08/05 11:10 25.7 50 11.97 14.5 9 11 1017.5 0 26.1 27.8 46.8 123.1 125.2 433.7
08/05 11:00 25.5 51 12.07 14.6 9 19 1017.6 0 26.3 28.0 47.3 124.5 126.8 439.2
08/05 10:50 25 51 11.74 14.4 7 11 1017.8 0 25.6 27.7 46.3 121.9 123.4 427.4
08/05 10:40 25 48 11.05 13.5 9 11 1017.9 0 24.2 26.6 43.7 114.9 114.8 397.3
08/05 10:30 25.7 49 11.73 14.2 6 15 1017.9 0 25.5 27.5 45.9 120.7 122.2 423.3
08/05 10:20 24.4 51 11.35 13.6 4 4 1018 0 24.8 27.3 45.1 118.8 119.5 413.5
08/05 10:10 24.4 51 11.35 13.6 7 11 1018 0 24.8 27.3 45.1 118.8 119.5 413.5
08/05 10:00 23.7 50 10.69 12.7 9 13 1018.1 0 23.5 26.5 43.0 113.1 112.3 388.2
08/05 09:50 23.7 50 10.69 12.9 9 11 1018.1 0 23.5 26.5 43.0 113.1 112.3 388.2
08/05 09:39 23.1 53 10.96 13 11 15 1018.2 0 24.1 27.1 44.4 116.8 116.5 403.0
08/05 09:30 23.4 51 10.72 12.7 7 15 1018.1 0 23.6 26.6 43.3 113.9 113.1 391.0
08/05 09:20 22.2 55 10.8 12.7 4 6 1018.2 0 23.8 27.1 44.3 116.4 115.8 400.5
08/05 09:10 22.4 54 10.72 12.6 6 7 1018 0 23.6 26.9 43.8 115.3 114.5 395.9
08/05 09:00 22 56 10.87 12.8 7 15 1017.9 0 24.0 27.2 44.6 117.4 117.0 404.5
08/05 08:50 21.1 60 11.05 13 4 6 1017.8 0 24.4 27.8 45.9 120.6 120.7 417.3
08/05 08:40 20.8 61 11.04 13.2 6 6 1017.6 0 24.4 27.9 46.0 121.0 121.0 418.4
08/05 08:30 20.3 65 11.43 13.5 6 13 1017.6 0 25.2 28.7 47.8 125.9 126.9 439.1
08/05 08:20 19.5 67 11.24 13.2 4 7 1017.7 0 24.9 28.6 47.6 125.2 125.7 434.7
08/05 08:10 19.4 65 10.84 12.8 7 11 1017.7 0 24.1 28.0 46.0 121.0 120.5 416.6
08/05 08:00 19.6 67 11.31 13.3 9 20 1017.5 0 25.0 28.7 47.8 125.7 126.5 437.4
08/05 07:50 19.7 65 11.04 12.9 13 17 1017.5 0 24.5 28.2 46.6 122.7 122.7 424.2
08/05 07:40 19.3 66 10.95 12.8 13 19 1017.2 0 24.3 28.2 46.5 122.3 122.1 422.1
08/05 07:30 19 68 11.08 13 9 17 1017.1 0 24.6 28.5 47.2 124.1 124.3 429.8
08/05 07:20 18.8 67 10.79 12.7 11 17 1016.9 0 24.0 28.1 46.1 121.3 120.7 417.2
08/05 07:10 18.6 70 11.14 13 9 13 1016.8 0 24.7 28.7 47.6 125.4 125.7 434.7
08/05 07:00 18.3 72 11.26 13.2 11 22 1016.7 0 25.0 29.0 48.3 127.2 127.9 442.1
08/05 06:50 18 74 11.37 13.3 11 15 1016.6 0 25.3 29.3 49.0 128.9 129.9 449.0
08/05 06:39 17.8 76 11.53 13.5 4 7 1016.4 0 25.6 29.6 49.8 131.0 132.4 457.8
08/05 06:30 17.8 77 11.69 13.7 7 13 1016.2 0 26.0 29.9 50.4 132.8 134.6 465.5
08/05 06:20 17.7 79 11.92 14 6 9 1016.2 0 26.5 30.3 51.5 135.6 138.0 477.3
08/05 06:10 17.7 84 12.67 14.9 4 6 1016 0 28.1 31.6 54.7 144.2 148.6 514.5
08/05 06:00 18 84 12.9 15.3 4 9 1015.9 0 28.5 31.9 55.5 146.3 151.3 523.9
08/05 05:50 18.3 83 12.98 15.3 4 4 1015.8 0 28.7 31.9 55.6 146.7 151.9 525.9
08/05 05:40 18.6 84 13.37 15.8 4 6 1015.7 0 29.5 32.5 57.1 150.7 156.9 543.4
08/05 05:30 19 84 13.69 16.2 6 13 1015.5 0 30.2 32.9 58.2 153.6 160.7 556.7
08/05 05:20 19.2 85 14.01 16.6 7 9 1015.4 0 30.8 33.4 59.5 157.0 164.9 571.5
08/05 05:10 19.5 84 14.1 16.7 7 9 1015.3 0 31.0 33.5 59.7 157.5 165.6 573.8
08/05 05:00 19.5 87 14.6 17.3 7 13 1015.1 0 32.1 34.3 61.9 163.4 172.9 599.4
08/05 04:50 19.4 92 15.35 18 7 9 1015.1 0 33.7 35.8 65.4 172.8 184.4 639.4
08/05 04:40 19.8 96 16.4 19.1 4 6 1015 0 35.9 37.6 70.0 185.0 199.5 692.1
08/05 04:30 19.3 95 15.76 18.5 0 6 1015 0 34.6 36.6 67.4 178.1 190.9 662.1
08/05 04:20 19.3 94 15.59 18.4 0 0 1014.9 0 34.2 36.3 66.6 176.0 188.3 653.0
08/05 04:10 19.5 94 15.77 18.6 2 4 1014.9 0 34.6 36.5 67.3 177.8 190.5 660.8
08/05 04:00 19.5 95 15.94 18.7 2 6 1014.9 0 34.9 36.8 68.1 179.9 193.2 669.9
08/05 03:50 19.7 94 15.96 18.8 2 4 1014.9 0 35.0 36.8 68.0 179.7 193.0 669.2
08/05 03:40 19.7 94 15.96 18.7 4 4 1014.9 0 35.0 36.8 68.0 179.7 193.0 669.2
08/05 03:30 19.9 94 16.15 18.9 4 7 1014.9 0 35.4 37.1 68.7 181.6 195.4 677.7
08/05 03:20 20 94 16.24 19 4 6 1014.9 0 35.5 37.2 69.1 182.5 196.5 681.6
08/05 03:10 20.1 94 16.34 19.1 6 6 1014.9 0 35.7 37.3 69.4 183.5 197.8 686.1
08/05 03:00 20.3 94 16.53 19.3 2 6 1014.8 0 36.1 37.6 70.2 185.4 200.2 694.4
08/05 02:50 20.4 94 16.63 19.4 2 2 1014.9 0 36.3 37.7 70.5 186.4 201.5 699.0
08/05 02:40 20.4 94 16.63 19.4 4 6 1014.9 0 36.3 37.7 70.5 186.4 201.5 699.0
08/05 02:30 20.3 93 16.35 19.1 4 7 1014.9 0 35.8 37.3 69.3 183.1 197.4 684.8
08/05 02:20 20 94 16.24 19 6 6 1014.9 0 35.5 37.2 69.1 182.5 196.5 681.6
08/05 02:10 19.8 94 16.05 18.8 6 6 1014.9 0 35.2 36.9 68.4 180.6 194.1 673.2
08/05 02:00 19.6 95 16.04 18.8 4 6 1015 0 35.1 37.0 68.5 181.0 194.5 674.5
08/05 01:50 19.6 94 15.87 18.7 4 4 1015 0 34.8 36.7 67.7 178.8 191.8 665.4
08/05 01:40 19.3 94 15.59 18.4 4 6 1015 0 34.2 36.3 66.6 176.0 188.3 653.0
08/05 01:30 18.9 95 15.39 18.1 4 4 1015.1 0 33.8 36.1 66.1 174.5 186.3 645.8
08/05 01:20 19.1 94 15.41 18.2 4 6 1015.1 0 33.8 36.0 66.0 174.3 186.1 645.2
08/05 01:10 19 94 15.32 18.1 4 6 1015.1 0 33.7 35.9 65.6 173.4 184.9 641.2
08/05 01:00 18.9 95 15.39 18.1 4 6 1015.2 0 33.8 36.1 66.1 174.5 186.3 645.9
08/05 00:50 18.9 94 15.23 18 4 4 1015.2 0 33.5 35.8 65.3 172.5 183.8 637.3
08/05 00:40 19 94 15.32 18.1 2 4 1015.3 0 33.7 35.9 65.7 173.4 185.0 641.3
08/05 00:30 18.7 94 15.05 17.7 4 4 1015.2 0 33.1 35.5 64.6 170.7 181.6 629.5
08/05 00:00 18.9 94 15.23 17.9 4 6 1015.4 33.5 35.8 65.3 172.5 183.8 637.4
07/05 23:57 18.9 94 15.23 17.9 4 6 1015.4 0 33.5 35.8 65.3 172.5 183.8 637.4
07/05 23:50 19 93 15.15 17.8 4 4 1015.4 0 33.3 35.6 64.9 171.3 182.4 632.3
07/05 23:40 19.1 93 15.24 17.9 4 6 1015.5 0 33.5 35.7 65.2 172.2 183.5 636.3
07/05 23:30 19.2 93 15.33 18 4 7 1015.7 0 33.7 35.8 65.6 173.1 184.7 640.3
07/05 23:20 19.2 93 15.33 18 4 4 1015.7 0 33.7 35.8 65.6 173.1 184.7 640.3
07/05 23:10 19.3 93 15.42 18.1 2 4 1015.7 0 33.8 36.0 65.9 174.0 185.8 644.3
07/05 23:00 19.3 93 15.42 18.1 4 4 1015.8 0 33.8 36.0 65.9 174.0 185.8 644.3
07/05 22:50 19.4 92 15.35 18 4 4 1015.9 0 33.7 35.8 65.5 172.9 184.5 639.8
07/05 22:40 19.6 91 15.36 18.1 2 2 1015.8 0 33.7 35.7 65.4 172.6 184.2 638.6
07/05 22:01 19.6 89 15.02 17.7 6 7 1015.9 0 33.0 35.1 63.8 168.4 179.0 620.8
07/05 22:00 19.6 89 15.02 17.7 4 6 1015.9 0 33.0 35.1 63.8 168.4 179.0 620.8
07/05 21:50 19.7 88 14.94 17.6 4 4 1015.9 0 32.8 34.9 63.3 167.2 177.6 615.8
07/05 21:40 19.9 85 14.6 17.4 2 4 1015.9 0 32.0 34.2 61.6 162.7 172.1 596.6
07/05 21:30 20.3 86 15.12 17.9 4 6 1015.9 0 33.1 35.0 63.7 168.1 178.9 620.3
07/05 21:20 20.4 87 15.39 18.1 6 6 1015.8 0 33.7 35.5 64.8 171.2 182.7 633.5
07/05 21:10 20.4 84 14.86 17.6 4 4 1015.7 0 32.5 34.5 62.4 164.7 174.7 605.9
07/05 21:00 20.5 84 14.95 17.7 4 6 1015.7 0 32.7 34.6 62.7 165.6 175.8 609.8
07/05 20:50 20.6 82 14.67 17.4 4 4 1015.7 0 32.1 34.1 61.4 162.0 171.5 594.6
07/05 20:40 20.6 81 14.5 17.2 4 4 1015.5 0 31.8 33.7 60.6 160.0 169.0 585.9
07/05 20:30 20.6 80 14.32 17 4 6 1015.5 0 31.4 33.4 59.8 157.8 166.4 576.8
07/05 20:20 20.8 78 14.12 16.8 4 6 1015.3 0 30.9 33.0 58.8 155.1 163.0 565.1
07/05 20:10 20.9 77 14.02 16.7 2 4 1015.2 0 30.7 32.8 58.2 153.7 161.4 559.3
07/05 20:00 21.1 75 13.82 16.5 4 6 1015.1 0 30.3 32.3 57.2 151.0 158.1 547.9
07/05 19:50 21.3 73 13.61 16.4 4 6 1015 0 29.8 31.9 56.2 148.1 154.7 536.1
07/05 19:40 21.5 72 13.58 16.4 4 6 1014.9 0 29.7 31.8 55.9 147.4 153.9 533.3

Last Refresh: 08-May-2026 12:10:14

Bureau of Meteorology